Time;durP1;ratioP1;P1;durP2;ratioP2;P2;SDS_P1;SDS_P2;PMS_P1;PMS_P2;Temp;Humidity;BMP_temperature;BMP_pressure;BME280_temperature;BME280_humidity;BME280_pressure;Samples;Min_cycle;Max_cycle;Signal;HPM_P1;HPM_P2
2022/07/27 00:00:57;;;;;;;7.40;6.58;;;;;;;16.69;100.00;99496.47;1622483;88;21780;-81
2022/07/27 00:04:03;;;;;;;11.65;6.37;;;;;;;16.68;100.00;99497.02;1623191;88;21226;-81
2022/07/27 00:07:09;;;;;;;7.62;5.80;;;;;;;16.67;100.00;99500.02;1623241;88;21203;-80
2022/07/27 00:10:15;;;;;;;10.08;6.72;;;;;;;16.65;100.00;99491.12;1622977;88;21223;-80
2022/07/27 00:13:22;;;;;;;13.20;6.67;;;;;;;16.64;100.00;99492.20;1623321;88;21211;-81
2022/07/27 00:16:28;;;;;;;9.60;7.67;;;;;;;16.63;100.00;99486.38;1622058;88;21242;-80
2022/07/27 00:19:35;;;;;;;11.57;6.97;;;;;;;16.60;100.00;99491.28;1622046;88;21707;-80
2022/07/27 00:22:41;;;;;;;9.05;6.17;;;;;;;16.58;100.00;99487.09;1622818;88;21239;-80
2022/07/27 00:25:47;;;;;;;15.60;6.92;;;;;;;16.58;100.00;99490.69;1622593;88;21234;-81
2022/07/27 00:28:53;;;;;;;9.15;6.67;;;;;;;16.51;100.00;99484.95;1621977;88;21832;-80
2022/07/27 00:31:59;;;;;;;12.88;7.15;;;;;;;16.47;100.00;99483.22;1622022;88;21199;-80
2022/07/27 00:35:06;;;;;;;8.53;7.20;;;;;;;16.45;100.00;99489.50;1623068;88;21242;-80
2022/07/27 00:38:12;;;;;;;9.30;7.65;;;;;;;16.43;100.00;99480.63;1623037;88;21203;-80
2022/07/27 00:41:17;;;;;;;8.33;6.92;;;;;;;16.39;100.00;99484.92;1621909;88;21779;-80
2022/07/27 00:44:35;;;;;;;9.28;7.08;;;;;;;16.38;100.00;99486.01;1621781;88;21852;-80
2022/07/27 00:47:40;;;;;;;8.73;7.25;;;;;;;16.34;100.00;99492.52;1623162;88;21248;-81
2022/07/27 00:50:49;;;;;;;8.55;6.70;;;;;;;16.32;100.00;99482.78;1621935;88;21242;-81
2022/07/27 00:53:55;;;;;;;8.43;6.95;;;;;;;16.29;100.00;99482.73;1623221;88;21195;-80
2022/07/27 00:57:00;;;;;;;10.13;7.40;;;;;;;16.29;100.00;99486.03;1623014;88;21851;-80
2022/07/27 01:00:06;;;;;;;10.85;7.78;;;;;;;16.29;100.00;99489.63;1622961;88;21791;-81
2022/07/27 01:03:12;;;;;;;11.05;8.50;;;;;;;16.29;100.00;99493.77;1622927;88;21741;-81
2022/07/27 01:06:19;;;;;;;12.05;8.48;;;;;;;16.31;100.00;99490.77;1621884;88;21246;-81
2022/07/27 01:12:52;;;;;;;10.32;8.83;;;;;;;16.24;100.00;99488.65;1622674;88;21238;-80
2022/07/27 01:15:58;;;;;;;9.95;8.50;;;;;;;16.24;100.00;99488.65;1621900;88;21807;-79
2022/07/27 01:18:57;;;;;;;9.93;7.95;;;;;;;16.19;100.00;99498.16;1623334;88;21191;-81
2022/07/27 01:22:04;;;;;;;10.55;8.25;;;;;;;16.10;100.00;99492.13;1603039;88;21233;-80
2022/07/27 01:25:11;;;;;;;8.90;8.00;;;;;;;16.07;100.00;99479.62;1621951;88;21255;-80
2022/07/27 01:28:17;;;;;;;9.65;8.28;;;;;;;16.08;100.00;99484.59;1622678;88;21234;-81
2022/07/27 01:31:22;;;;;;;12.15;8.15;;;;;;;16.14;100.00;99485.58;1623074;88;21230;-80
2022/07/27 01:34:32;;;;;;;11.22;8.70;;;;;;;16.11;100.00;99488.28;1622301;88;21756;-80
2022/07/27 01:37:38;;;;;;;14.63;9.63;;;;;;;16.13;100.00;99492.17;1623156;88;21760;-80
2022/07/27 01:40:46;;;;;;;13.38;9.20;;;;;;;16.12;100.00;99491.88;1622539;88;21578;-80
2022/07/27 01:43:54;;;;;;;10.18;8.70;;;;;;;16.10;100.00;99495.72;1622954;88;21282;-81
2022/07/27 01:46:59;;;;;;;12.55;10.20;;;;;;;16.08;100.00;99495.09;1624485;88;21199;-81
2022/07/27 01:50:06;;;;;;;12.60;9.90;;;;;;;16.08;100.00;99488.73;1624272;88;21246;-80
2022/07/27 01:53:13;;;;;;;13.70;10.13;;;;;;;16.09;100.00;99487.66;1624343;88;21716;-80
2022/07/27 01:56:20;;;;;;;12.75;9.98;;;;;;;16.06;100.00;99486.76;1623614;88;21222;-80
2022/07/27 01:59:27;;;;;;;15.32;9.90;;;;;;;16.04;100.00;99490.27;1623521;88;21278;-80
2022/07/27 02:02:34;;;;;;;16.10;10.98;;;;;;;16.02;100.00;99491.89;1624519;88;21199;-80
2022/07/27 02:05:41;;;;;;;15.55;10.20;;;;;;;16.01;100.00;99501.24;1623366;88;21203;-80
2022/07/27 02:08:45;;;;;;;14.78;10.30;;;;;;;15.98;100.00;99497.55;1624461;88;21211;-80
2022/07/27 02:15:18;;;;;;;12.10;10.75;;;;;;;15.95;100.00;99502.69;1623405;88;21235;-80
2022/07/27 02:18:25;;;;;;;13.68;8.95;;;;;;;15.93;100.00;99511.20;1624655;88;21175;-80
2022/07/27 02:21:33;;;;;;;10.15;8.60;;;;;;;15.91;100.00;99516.11;1624584;88;21239;-80
2022/07/27 02:24:39;;;;;;;13.45;10.78;;;;;;;15.91;100.00;99516.66;1623922;88;21246;-80
2022/07/27 02:27:47;;;;;;;18.07;11.28;;;;;;;15.93;100.00;99520.85;1623326;88;21191;-80
2022/07/27 02:30:52;;;;;;;16.07;12.07;;;;;;;15.96;100.00;99524.53;1623878;88;21226;-80
2022/07/27 02:33:58;;;;;;;13.10;10.90;;;;;;;16.01;100.00;99534.88;1623264;88;21740;-80
2022/07/27 02:37:05;;;;;;;16.25;11.25;;;;;;;16.22;100.00;99528.87;1623193;88;21790;-80
2022/07/27 02:40:04;;;;;;;15.18;11.25;;;;;;;16.47;100.00;99527.92;1624323;88;21238;-80
2022/07/27 02:43:09;;;;;;;13.18;10.53;;;;;;;16.72;100.00;99523.66;1624507;88;21247;-80
2022/07/27 02:46:07;;;;;;;14.05;10.75;;;;;;;16.99;100.00;99525.48;1623237;88;21811;-80
2022/07/27 02:49:13;;;;;;;13.38;10.85;;;;;;;17.28;100.00;99536.15;1624614;88;21321;-80
2022/07/27 02:52:19;;;;;;;21.93;10.15;;;;;;;17.56;100.00;99534.89;1624482;88;21203;-80
2022/07/27 02:55:24;;;;;;;16.60;11.03;;;;;;;17.85;100.00;99536.41;1623302;88;21238;-80
2022/07/27 02:58:30;;;;;;;14.15;11.03;;;;;;;18.18;100.00;99530.75;1623355;88;21756;-80
2022/07/27 03:01:36;;;;;;;19.95;10.75;;;;;;;18.50;100.00;99533.90;1624455;88;21819;-80
2022/07/27 03:04:29;;;;;;;12.53;9.80;;;;;;;18.74;97.71;99531.89;1624631;88;21775;-81
2022/07/27 03:07:35;;;;;;;15.25;10.45;;;;;;;18.90;96.12;99545.76;1623437;88;21199;-80
2022/07/27 03:10:41;;;;;;;13.50;11.88;;;;;;;19.07;95.02;99544.95;1624082;88;21698;-80
2022/07/27 03:13:48;;;;;;;15.32;10.82;;;;;;;19.28;93.99;99546.13;1624553;88;21237;-80
2022/07/27 03:16:53;;;;;;;25.60;12.40;;;;;;;19.45;92.91;99552.53;1624508;88;21238;-80
2022/07/27 03:20:02;;;;;;;20.95;13.75;;;;;;;19.60;91.67;99550.02;1624385;88;21242;-80
2022/07/27 03:23:07;;;;;;;21.10;13.60;;;;;;;19.72;91.03;99551.87;1624502;88;21275;-80
2022/07/27 03:26:13;;;;;;;22.60;15.03;;;;;;;19.87;90.46;99552.92;1623743;88;21218;-80
2022/07/27 03:29:19;;;;;;;21.30;14.55;;;;;;;20.07;89.92;99545.42;1624262;88;21199;-81
2022/07/27 03:32:25;;;;;;;24.30;14.83;;;;;;;20.31;89.17;99548.78;1624544;88;21610;-80
2022/07/27 03:35:31;;;;;;;23.45;14.15;;;;;;;20.56;88.22;99548.83;1624091;88;21270;-81
2022/07/27 03:38:36;;;;;;;25.37;13.62;;;;;;;20.81;87.04;99553.30;1623280;88;21206;-81
2022/07/27 03:41:35;;;;;;;22.90;12.78;;;;;;;21.00;86.04;99552.37;1623259;88;21278;-81
2022/07/27 03:44:40;;;;;;;19.67;11.73;;;;;;;21.10;85.20;99555.25;1624442;88;21210;-80
2022/07/27 03:47:46;;;;;;;19.20;11.80;;;;;;;21.17;84.44;99568.40;1623205;88;21273;-80
2022/07/27 03:50:52;;;;;;;15.80;11.57;;;;;;;21.21;83.85;99565.91;1623180;88;21227;-80
2022/07/27 03:53:59;;;;;;;15.88;10.55;;;;;;;21.22;83.87;99567.61;1624477;88;21234;-80
2022/07/27 03:57:05;;;;;;;13.18;10.32;;;;;;;21.30;83.80;99574.61;1623512;88;21799;-80
2022/07/27 04:00:12;;;;;;;16.85;10.70;;;;;;;21.43;83.31;99576.98;1623390;88;21225;-80
2022/07/27 04:03:18;;;;;;;20.97;10.90;;;;;;;21.54;83.14;99575.95;1624545;88;21839;-80
2022/07/27 04:06:18;;;;;;;;;;;;;;;21.61;82.59;99575.19;1625667;88;21254;-80
2022/07/27 04:09:23;;;;;;;17.12;10.88;;;;;;;21.59;83.08;99577.94;1624516;88;20227;-80
2022/07/27 04:12:31;;;;;;;16.05;10.78;;;;;;;21.58;82.98;99581.28;1624535;88;21203;-81
2022/07/27 04:15:37;;;;;;;16.17;11.05;;;;;;;21.52;83.29;99587.08;1624117;88;21228;-79
2022/07/27 04:18:43;;;;;;;13.93;9.68;;;;;;;21.54;83.44;99586.25;1624442;88;21251;-80
2022/07/27 04:21:48;;;;;;;18.50;10.35;;;;;;;21.61;83.43;99584.09;1623314;88;21258;-81
2022/07/27 04:24:54;;;;;;;17.48;9.75;;;;;;;21.73;83.08;99581.94;1624558;88;21263;-80
2022/07/27 04:27:59;;;;;;;12.25;9.90;;;;;;;21.85;82.21;99589.55;1624531;88;21740;-81
2022/07/27 04:31:06;;;;;;;19.35;10.13;;;;;;;21.93;81.24;99586.84;1624081;88;21199;-81
2022/07/27 04:34:13;;;;;;;16.45;9.68;;;;;;;21.99;81.24;99584.36;1623136;88;21195;-81
2022/07/27 04:37:20;;;;;;;17.12;9.30;;;;;;;22.18;81.06;99587.01;1623340;88;21183;-80
2022/07/27 04:40:26;;;;;;;16.48;9.10;;;;;;;22.36;79.57;99584.88;1624152;88;21242;-81
2022/07/27 04:43:32;;;;;;;17.92;9.73;;;;;;;22.51;79.04;99587.72;1624512;88;21792;-81
2022/07/27 04:46:37;;;;;;;14.13;8.40;;;;;;;22.66;77.99;99594.74;1623629;88;21246;-80
2022/07/27 04:49:43;;;;;;;20.00;8.90;;;;;;;22.78;77.32;99594.52;1634125;88;21727;-81
2022/07/27 04:52:48;;;;;;;10.00;8.15;;;;;;;22.80;76.67;99598.42;1634224;88;21198;-80
2022/07/27 04:55:54;;;;;;;18.95;9.30;;;;;;;22.83;76.30;99596.48;1633553;88;21234;-80
2022/07/27 04:59:01;;;;;;;15.45;8.58;;;;;;;22.88;76.48;99595.11;1634174;88;21254;-80
2022/07/27 05:02:08;;;;;;;23.18;9.20;;;;;;;22.94;75.77;99598.21;1638360;86;21232;-81
2022/07/27 05:05:14;;;;;;;13.60;8.70;;;;;;;23.07;75.37;99595.46;1651690;87;21289;-80
2022/07/27 05:08:21;;;;;;;16.62;7.75;;;;;;;23.19;74.84;99590.44;1651105;87;21261;-80
2022/07/27 05:11:25;;;;;;;11.60;7.40;;;;;;;23.34;74.36;99591.05;1650228;87;21240;-80
2022/07/27 05:14:32;;;;;;;9.20;6.95;;;;;;;23.50;73.76;99588.53;1651347;87;21722;-80
2022/07/27 05:17:40;;;;;;;14.90;9.40;;;;;;;23.69;73.25;99595.25;1643283;87;21236;-80
2022/07/27 05:20:45;;;;;;;12.43;8.88;;;;;;;23.83;72.07;99596.91;1611453;88;21277;-80
2022/07/27 05:23:52;;;;;;;16.57;8.73;;;;;;;23.92;71.91;99595.79;1632960;88;21845;-81
2022/07/27 05:26:57;;;;;;;12.75;8.38;;;;;;;24.10;71.93;99598.00;1632627;88;21237;-80
2022/07/27 05:30:04;;;;;;;13.30;9.30;;;;;;;24.33;70.99;99602.70;1632934;88;21244;-81
2022/07/27 05:33:11;;;;;;;13.28;9.53;;;;;;;24.47;70.80;99599.61;1631746;86;21817;-81
2022/07/27 05:36:18;;;;;;;10.80;7.03;;;;;;;24.65;70.68;99597.55;1656518;85;21209;-80
2022/07/27 05:39:25;;;;;;;10.48;6.65;;;;;;;24.83;68.87;99601.66;1658811;85;21201;-80
2022/07/27 05:42:31;;;;;;;11.53;6.72;;;;;;;24.90;67.75;99595.77;1638393;87;21182;-81
2022/07/27 05:45:36;;;;;;;10.55;6.55;;;;;;;24.99;67.75;99599.07;1637355;87;21193;-81
2022/07/27 05:48:43;;;;;;;7.15;4.70;;;;;;;25.12;65.91;99606.00;1642950;86;21237;-81
2022/07/27 05:51:48;;;;;;;11.63;5.45;;;;;;;25.20;64.78;99603.99;1632173;87;21187;-81
2022/07/27 05:54:47;;;;;;;9.48;5.90;;;;;;;25.15;64.35;99606.83;1620928;88;21229;-80
2022/07/27 05:57:47;;;;;;;8.80;4.87;;;;;;;25.03;65.15;99608.27;1663667;85;21202;-81
2022/07/27 06:00:53;;;;;;;11.22;3.37;;;;;;;24.96;65.30;99614.19;1631325;87;21198;-81
2022/07/27 06:03:59;;;;;;;5.87;2.98;;;;;;;24.99;63.51;99610.83;1630402;87;21810;-80
2022/07/27 06:10:31;;;;;;;6.60;3.40;;;;;;;25.17;63.11;99608.79;1624385;87;21223;-81
2022/07/27 06:13:35;;;;;;;5.90;3.17;;;;;;;25.22;62.95;99610.16;1623192;87;21764;-81
2022/07/27 06:16:42;;;;;;;8.25;3.27;;;;;;;25.30;62.21;99614.28;1630543;87;21190;-81
2022/07/27 06:19:48;;;;;;;4.08;2.60;;;;;;;25.41;62.39;99604.70;1632812;87;21210;-81
2022/07/27 06:23:02;;;;;;;6.25;2.85;;;;;;;25.51;61.33;99612.19;1607547;89;21194;-81
2022/07/27 06:26:08;;;;;;;5.12;2.80;;;;;;;25.58;59.73;99606.24;1622969;88;21210;-82
2022/07/27 06:29:07;;;;;;;3.20;2.58;;;;;;;25.67;58.91;99610.92;1626977;87;21770;-81
2022/07/27 06:32:13;;;;;;;5.47;3.00;;;;;;;25.76;58.83;99607.53;1637846;87;21178;-81
2022/07/27 06:35:22;;;;;;;3.80;3.40;;;;;;;25.74;58.95;99614.23;1622020;87;21221;-82
2022/07/27 06:38:28;;;;;;;5.08;3.02;;;;;;;25.76;58.95;99619.56;1637749;87;21250;-81
2022/07/27 06:41:34;;;;;;;5.58;3.33;;;;;;;25.77;58.67;99612.83;1636471;87;21781;-81
2022/07/27 06:44:38;;;;;;;4.47;2.95;;;;;;;25.68;58.13;99606.98;1625334;87;21170;-82
2022/07/27 06:47:44;;;;;;;6.75;2.92;;;;;;;25.68;59.09;99613.98;1649177;86;21734;-82
2022/07/27 06:50:50;;;;;;;8.35;3.20;;;;;;;25.89;58.89;99609.08;1642216;86;21215;-82
2022/07/27 06:53:56;;;;;;;3.50;3.20;;;;;;;26.21;58.50;99608.48;1617766;87;21174;-82
2022/07/27 06:57:02;;;;;;;3.85;3.10;;;;;;;26.57;56.67;99613.70;1625161;87;21182;-82
2022/07/27 07:00:08;;;;;;;9.03;3.22;;;;;;;26.80;55.59;99613.41;1633451;87;21185;-81
2022/07/27 07:03:15;;;;;;;7.10;3.72;;;;;;;26.91;55.48;99622.52;1649803;86;21225;-80
2022/07/27 07:06:21;;;;;;;7.10;3.87;;;;;;;26.82;55.03;99621.52;1622305;87;21209;-81
2022/07/27 07:09:28;;;;;;;5.08;3.37;;;;;;;26.66;55.48;99628.73;1616076;87;21814;-80
2022/07/27 07:12:35;;;;;;;4.15;3.55;;;;;;;26.50;56.19;99628.66;1627688;87;21189;-80
2022/07/27 07:15:41;;;;;;;5.72;3.33;;;;;;;26.37;56.04;99629.33;1613016;88;21269;-81
2022/07/27 07:18:48;;;;;;;5.30;3.25;;;;;;;26.20;56.25;99623.61;1615325;88;21202;-80
2022/07/27 07:21:53;;;;;;;3.50;3.02;;;;;;;26.15;56.76;99629.27;1617254;88;21229;-81
2022/07/27 07:24:58;;;;;;;7.80;3.33;;;;;;;26.12;56.70;99631.28;1622722;88;21269;-81
2022/07/27 07:28:04;;;;;;;5.25;3.20;;;;;;;26.07;56.10;99636.11;1632050;87;21653;-80
2022/07/27 07:31:09;;;;;;;5.10;3.83;;;;;;;26.02;55.95;99628.58;1644991;86;21222;-80
2022/07/27 07:34:15;;;;;;;4.05;2.90;;;;;;;26.21;55.99;99633.71;1629175;87;21237;-81
2022/07/27 07:37:22;;;;;;;12.05;3.62;;;;;;;26.48;55.23;99633.14;1646013;86;21201;-80
2022/07/27 07:40:29;;;;;;;3.65;2.83;;;;;;;26.74;54.04;99634.27;1651865;86;21194;-79
2022/07/27 07:43:38;;;;;;;7.33;2.92;;;;;;;26.92;53.73;99632.63;1646746;86;21714;-80
2022/07/27 07:46:43;;;;;;;4.12;2.77;;;;;;;26.99;52.55;99635.89;1644529;86;21245;-80
2022/07/27 07:49:49;;;;;;;5.50;2.77;;;;;;;26.93;51.66;99639.91;1651767;85;21279;-80
2022/07/27 07:52:56;;;;;;;12.43;2.67;;;;;;;26.85;51.67;99637.77;1652819;86;21166;-79
2022/07/27 07:56:02;;;;;;;7.05;2.40;;;;;;;26.87;51.30;99639.72;1655571;84;21189;-80
2022/07/27 07:59:08;;;;;;;9.88;2.75;;;;;;;27.00;50.93;99638.38;1647457;86;21166;-81
2022/07/27 08:02:15;;;;;;;4.87;2.52;;;;;;;27.17;50.00;99637.91;1644522;86;21788;-80
2022/07/27 08:05:20;;;;;;;6.60;2.22;;;;;;;27.40;49.09;99635.34;1622448;87;21162;-80
2022/07/27 08:08:28;;;;;;;2.72;2.37;;;;;;;27.64;48.49;99633.84;1638645;86;21239;-80
2022/07/27 08:11:34;;;;;;;7.65;2.52;;;;;;;27.93;48.34;99632.25;1638637;86;21204;-79
2022/07/27 08:14:40;;;;;;;2.27;2.08;;;;;;;28.10;47.70;99637.31;1646433;86;21181;-80
2022/07/27 08:17:47;;;;;;;7.03;2.55;;;;;;;28.15;46.25;99640.86;1639680;86;21465;-81
2022/07/27 08:20:53;;;;;;;3.25;2.27;;;;;;;28.01;46.09;99641.39;1633929;87;21177;-81
2022/07/27 08:23:59;;;;;;;2.83;2.12;;;;;;;27.83;47.01;99636.08;1623464;87;21178;-81
2022/07/27 08:27:07;;;;;;;3.60;2.35;;;;;;;27.73;47.00;99644.11;1645795;86;21201;-80
2022/07/27 08:30:14;;;;;;;4.25;2.67;;;;;;;27.81;46.17;99650.16;1647139;86;21190;-78
2022/07/27 08:33:19;;;;;;;5.25;2.27;;;;;;;27.77;46.37;99648.55;1641122;86;21194;-80
2022/07/27 08:36:27;;;;;;;2.67;1.92;;;;;;;27.83;47.31;99649.30;1641122;86;21833;-81
2022/07/27 08:39:32;;;;;;;5.05;2.60;;;;;;;27.74;46.45;99645.77;1657469;86;21624;-81
2022/07/27 08:42:40;;;;;;;4.10;2.70;;;;;;;27.66;47.86;99649.23;1660053;86;21799;-80
2022/07/27 08:45:47;;;;;;;3.45;2.35;;;;;;;27.60;48.53;99648.23;1628901;87;21837;-81
2022/07/27 08:48:53;;;;;;;6.30;2.83;;;;;;;27.45;48.73;99645.92;1631349;87;21193;-81
2022/07/27 08:52:01;;;;;;;4.10;2.42;;;;;;;27.32;48.95;99647.25;1635728;86;21784;-81
2022/07/27 08:55:07;;;;;;;3.20;2.47;;;;;;;27.28;48.64;99654.61;1637430;87;21245;-81
2022/07/27 08:58:14;;;;;;;5.10;2.60;;;;;;;27.24;48.39;99648.22;1641984;86;21192;-80
2022/07/27 09:01:20;;;;;;;2.47;2.17;;;;;;;27.22;48.96;99642.05;1642644;87;21213;-81
2022/07/27 09:04:26;;;;;;;3.83;2.47;;;;;;;27.28;48.35;99640.57;1637612;87;21182;-80
2022/07/27 09:07:35;;;;;;;4.55;2.20;;;;;;;27.39;48.12;99640.13;1626446;88;21201;-80
2022/07/27 09:10:42;;;;;;;8.13;2.45;;;;;;;27.45;47.91;99646.50;1625058;88;21204;-81
2022/07/27 09:13:41;;;;;;;3.87;2.62;;;;;;;27.45;47.77;99642.28;1625419;88;21209;-80
2022/07/27 09:16:38;;;;;;;2.92;2.10;;;;;;;27.41;48.21;99649.07;1624315;88;21240;-81
2022/07/27 09:20:02;;;;;;;2.87;2.40;;;;;;;27.35;47.64;99649.47;1624837;88;21225;-81
2022/07/27 09:23:09;;;;;;;5.30;2.40;;;;;;;27.21;47.82;99647.41;1625364;88;21193;-80
2022/07/27 09:26:18;;;;;;;3.47;2.55;;;;;;;27.08;48.31;99647.28;1624652;88;21240;-80
2022/07/27 09:29:25;;;;;;;5.28;2.45;;;;;;;26.98;48.16;99648.26;1639304;86;21781;-79
2022/07/27 09:32:31;;;;;;;2.30;2.00;;;;;;;26.88;48.00;99639.41;1646320;86;21834;-79
2022/07/27 09:35:40;;;;;;;2.22;2.02;;;;;;;26.90;47.64;99643.30;1636524;87;21181;-80
2022/07/27 09:38:48;;;;;;;3.75;2.20;;;;;;;27.01;47.65;99649.06;1639703;86;21178;-80
2022/07/27 09:41:56;;;;;;;2.17;1.97;;;;;;;27.17;47.44;99643.53;1639812;87;21185;-81
2022/07/27 09:45:04;;;;;;;3.87;1.85;;;;;;;27.40;47.04;99644.60;1641966;87;21233;-81
2022/07/27 09:48:27;;;;;;;6.22;1.80;;;;;;;27.69;46.20;99637.97;1639562;87;21186;-80
2022/07/27 09:51:33;;;;;;;2.55;1.77;;;;;;;27.87;46.34;99632.92;1619068;88;21237;-79
2022/07/27 09:54:50;;;;;;;3.05;2.17;;;;;;;28.05;44.93;99632.61;1651676;86;21221;-81
2022/07/27 09:58:00;;;;;;;2.00;1.80;;;;;;;28.18;44.14;99630.95;1652300;86;21233;-81
2022/07/27 10:01:07;;;;;;;4.85;1.80;;;;;;;28.33;44.01;99632.67;1643750;87;21229;-81
2022/07/27 10:04:13;;;;;;;1.90;1.70;;;;;;;28.42;43.03;99637.30;1658002;86;21814;-81
2022/07/27 10:07:21;;;;;;;2.20;1.57;;;;;;;28.44;42.71;99634.16;1662450;86;21229;-81
2022/07/27 10:10:28;;;;;;;2.65;1.82;;;;;;;28.42;42.54;99636.43;1645314;86;21229;-81
2022/07/27 10:13:34;;;;;;;2.87;1.30;;;;;;;28.40;43.00;99641.55;1629969;87;21198;-81
2022/07/27 10:16:42;;;;;;;1.90;1.70;;;;;;;28.49;43.03;99634.89;1607737;87;21252;-81
2022/07/27 10:19:54;;;;;;;1.82;1.70;;;;;;;28.55;42.36;99633.38;1637918;87;21266;-81
2022/07/27 10:23:06;;;;;;;3.20;1.52;;;;;;;28.50;42.31;99632.91;1650318;86;21236;-80
2022/07/27 10:26:34;;;;;;;2.02;1.67;;;;;;;28.38;42.38;99636.81;1652922;86;21237;-81
2022/07/27 10:29:38;;;;;;;4.53;1.85;;;;;;;28.14;42.43;99633.57;1630838;88;21193;-81
2022/07/27 10:32:46;;;;;;;4.20;1.92;;;;;;;27.88;43.36;99635.98;1648222;86;21611;-81
2022/07/27 10:35:51;;;;;;;2.50;1.95;;;;;;;27.82;44.03;99635.82;1645863;86;21264;-81
2022/07/27 10:38:59;;;;;;;1.75;1.50;;;;;;;27.74;43.77;99633.70;1662139;86;21225;-81
2022/07/27 10:42:28;;;;;;;3.37;1.57;;;;;;;27.72;44.06;99631.20;1636081;87;21206;-81
2022/07/27 10:45:33;;;;;;;;;;;;;;;27.83;43.98;99637.48;1633703;87;21230;-81
2022/07/27 10:48:45;;;;;;;3.15;1.70;;;;;;;28.03;42.96;99627.28;1617210;88;20200;-81
2022/07/27 10:51:52;;;;;;;4.28;1.50;;;;;;;28.23;42.80;99633.13;1631470;88;21209;-81
2022/07/27 10:54:58;;;;;;;2.55;1.55;;;;;;;28.42;42.03;99630.27;1643493;86;21754;-81
2022/07/27 10:58:27;;;;;;;1.98;1.75;;;;;;;28.58;41.79;99632.19;1642591;87;21198;-81
2022/07/27 11:01:34;;;;;;;2.55;1.50;;;;;;;28.68;41.30;99631.97;1644567;87;21204;-80
2022/07/27 11:04:40;;;;;;;3.25;1.70;;;;;;;28.66;40.50;99628.66;1650357;87;21249;-81
2022/07/27 11:07:46;;;;;;;2.17;1.70;;;;;;;28.68;40.43;99626.92;1646583;86;21784;-81
2022/07/27 11:10:55;;;;;;;1.52;1.42;;;;;;;28.70;40.13;99631.10;1616732;86;21750;-80
2022/07/27 11:14:03;;;;;;;3.35;1.60;;;;;;;28.76;40.51;99627.03;1623494;88;21187;-80
2022/07/27 11:17:10;;;;;;;2.72;1.90;;;;;;;28.80;40.09;99628.65;1627789;87;21210;-81
2022/07/27 11:20:18;;;;;;;3.67;1.42;;;;;;;28.77;40.28;99630.09;1604904;87;21304;-81
2022/07/27 11:23:29;;;;;;;2.35;1.30;;;;;;;28.76;40.19;99633.23;1621241;87;21217;-80
2022/07/27 11:26:40;;;;;;;2.10;1.42;;;;;;;28.94;40.59;99628.64;1635813;87;21224;-80
2022/07/27 11:29:46;;;;;;;2.22;1.67;;;;;;;28.94;40.59;99628.64;1625726;88;21182;-80
2022/07/27 11:32:52;;;;;;;2.80;1.37;;;;;;;29.00;40.32;99630.21;1618122;88;21170;-79
2022/07/27 11:36:03;;;;;;;9.53;1.60;;;;;;;28.95;39.99;99627.52;1609077;88;21230;-80
2022/07/27 11:39:08;;;;;;;1.67;1.17;;;;;;;28.80;40.04;99627.24;1624093;88;21611;-81
2022/07/27 11:42:15;;;;;;;1.77;1.30;;;;;;;28.77;40.27;99620.83;1612772;88;21754;-80
2022/07/27 11:45:38;;;;;;;3.65;1.85;;;;;;;28.82;40.33;99623.52;1619766;88;21262;-81
2022/07/27 11:48:45;;;;;;;3.10;1.20;;;;;;;28.78;40.61;99621.08;1605903;87;21262;-81
2022/07/27 11:51:54;;;;;;;3.70;1.20;;;;;;;28.78;40.61;99621.08;1618753;88;21198;-81
2022/07/27 11:54:59;;;;;;;2.60;1.70;;;;;;;28.93;40.15;99629.18;1621556;87;21233;-80
2022/07/27 11:58:14;;;;;;;4.58;1.57;;;;;;;28.99;40.05;99629.39;1637549;87;21162;-80
2022/07/27 12:01:21;;;;;;;1.42;1.20;;;;;;;28.89;39.79;99625.91;1641207;87;21810;-81
2022/07/27 12:04:39;;;;;;;5.72;1.30;;;;;;;28.89;39.79;99625.91;1655690;86;21166;-81
2022/07/27 12:07:46;;;;;;;1.45;1.30;;;;;;;28.90;40.06;99624.20;1662826;86;21186;-81
2022/07/27 12:11:06;;;;;;;3.83;1.52;;;;;;;29.20;38.73;99626.93;1662707;86;21557;-80
2022/07/27 12:14:19;;;;;;;;;;;;;;;29.20;38.73;99626.93;1665047;86;21887;-81
2022/07/27 12:17:34;;;;;;;1.75;1.30;;;;;;;29.36;38.70;99618.12;1660541;86;20446;-81
2022/07/27 12:20:40;;;;;;;2.67;1.37;;;;;;;29.44;38.87;99618.78;1632303;86;21237;-81
2022/07/27 12:23:57;;;;;;;1.40;1.30;;;;;;;29.44;38.87;99618.78;1636042;87;21274;-81
2022/07/27 12:27:16;;;;;;;1.30;1.20;;;;;;;29.40;38.39;99622.80;1614050;87;21202;-81
2022/07/27 12:30:20;;;;;;;1.92;1.32;;;;;;;29.40;38.73;99620.56;1631657;86;21236;-81
2022/07/27 12:33:41;;;;;;;5.25;1.40;;;;;;;29.34;38.55;99617.04;1635430;87;21233;-81
2022/07/27 12:36:50;;;;;;;3.08;1.20;;;;;;;29.25;38.87;99618.36;1662986;86;21277;-81
2022/07/27 12:39:56;;;;;;;3.30;1.30;;;;;;;29.18;38.39;99619.39;1654685;86;21227;-81
2022/07/27 12:43:10;;;;;;;3.37;1.30;;;;;;;29.19;38.78;99618.81;1636432;87;21846;-81
2022/07/27 12:46:20;;;;;;;2.55;1.40;;;;;;;29.19;38.78;99618.81;1636665;87;21772;-81
2022/07/27 12:49:25;;;;;;;1.72;1.50;;;;;;;29.04;38.28;99611.55;1636581;86;21861;-81
2022/07/27 12:52:30;;;;;;;3.33;1.50;;;;;;;29.14;38.82;99602.87;1617933;87;21158;-81
2022/07/27 12:55:35;;;;;;;3.05;1.30;;;;;;;29.21;37.70;99599.02;1636458;87;21186;-80
2022/07/27 12:58:41;;;;;;;5.10;1.47;;;;;;;29.21;37.70;99599.02;1665138;85;21286;-81
2022/07/27 13:01:50;;;;;;;2.85;1.17;;;;;;;29.26;37.77;99589.05;1646983;87;21273;-81
2022/07/27 13:04:55;;;;;;;2.83;1.20;;;;;;;29.35;37.52;99596.74;1663322;86;21221;-80
2022/07/27 13:08:03;;;;;;;2.67;1.30;;;;;;;29.45;37.72;99597.90;1663680;86;21193;-80
2022/07/27 13:11:13;;;;;;;5.37;1.37;;;;;;;29.45;37.72;99597.90;1663865;86;21642;-81
2022/07/27 13:14:19;;;;;;;1.17;1.07;;;;;;;29.52;37.38;99588.45;1642689;86;21208;-81
2022/07/27 13:17:19;;;;;;;3.45;1.10;;;;;;;29.54;37.50;99588.95;1667908;85;21700;-80
2022/07/27 13:20:25;;;;;;;7.78;1.32;;;;;;;29.45;37.66;99594.53;1656475;86;21233;-80
2022/07/27 13:23:31;;;;;;;2.17;1.20;;;;;;;29.28;37.59;99576.08;1657852;85;21684;-81
2022/07/27 13:26:37;;;;;;;3.35;1.42;;;;;;;29.29;37.88;99582.79;1657037;86;21220;-81
2022/07/27 13:29:42;;;;;;;12.20;1.40;;;;;;;29.29;38.54;99579.97;1634522;88;21165;-81
2022/07/27 13:32:48;;;;;;;12.65;1.72;;;;;;;29.29;38.54;99579.97;1637880;86;21217;-81
2022/07/27 13:35:54;;;;;;;4.70;1.40;;;;;;;29.31;38.36;99582.45;1661299;86;21599;-81
2022/07/27 13:39:00;;;;;;;3.50;1.35;;;;;;;29.35;38.22;99577.03;1660053;85;21199;-80
2022/07/27 13:42:07;;;;;;;1.95;1.50;;;;;;;29.41;38.27;99584.22;1675652;85;21804;-80
2022/07/27 13:45:13;;;;;;;6.67;1.57;;;;;;;29.41;38.21;99589.86;1655883;86;21239;-80
2022/07/27 13:48:20;;;;;;;7.40;1.70;;;;;;;29.36;38.24;99580.09;1661057;86;21197;-80
2022/07/27 13:51:25;;;;;;;3.37;1.87;;;;;;;29.22;38.69;99576.78;1661600;86;21573;-80
2022/07/27 13:54:31;;;;;;;2.30;1.57;;;;;;;29.15;38.59;99578.36;1659553;86;21281;-80
2022/07/27 13:57:37;;;;;;;3.12;1.45;;;;;;;29.12;38.62;99582.63;1648956;86;21566;-80
2022/07/27 14:00:43;;;;;;;2.40;1.52;;;;;;;29.12;38.62;99582.63;1638746;87;21241;-81
2022/07/27 14:03:50;;;;;;;5.22;1.60;;;;;;;29.07;38.39;99588.38;1642216;87;21185;-79
2022/07/27 14:06:55;;;;;;;1.65;1.45;;;;;;;29.02;38.38;99587.91;1639630;87;21261;-81
2022/07/27 14:13:28;;;;;;;3.98;1.27;;;;;;;29.07;38.39;99589.78;1639475;87;21260;-81
2022/07/27 14:16:35;;;;;;;5.12;1.55;;;;;;;29.12;38.09;99588.83;1630459;87;21276;-81
2022/07/27 14:19:45;;;;;;;4.25;1.82;;;;;;;29.08;37.66;99592.88;1639109;87;21206;-81
2022/07/27 14:22:51;;;;;;;4.95;1.75;;;;;;;29.03;37.30;99592.42;1657693;86;21237;-80
2022/07/27 14:25:57;;;;;;;3.30;1.30;;;;;;;29.00;37.60;99588.82;1656605;86;21280;-80
2022/07/27 14:29:02;;;;;;;4.78;1.52;;;;;;;29.07;37.88;99588.95;1657614;86;21580;-80
2022/07/27 14:32:09;;;;;;;2.95;1.25;;;;;;;29.13;37.57;99592.76;1656502;86;21193;-81
2022/07/27 14:35:15;;;;;;;3.77;1.40;;;;;;;29.18;37.53;99583.36;1641412;87;21551;-81
2022/07/27 14:38:22;;;;;;;2.40;1.55;;;;;;;29.15;37.37;99589.04;1616478;87;21190;-81
2022/07/27 14:41:29;;;;;;;4.17;1.65;;;;;;;29.20;37.79;99595.13;1609755;89;21220;-80
2022/07/27 14:44:36;;;;;;;3.25;2.08;;;;;;;29.24;38.50;99594.17;1632586;87;21739;-80
2022/07/27 14:47:42;;;;;;;3.72;2.25;;;;;;;29.22;38.11;99593.67;1641509;87;21189;-79